Time;durP1;ratioP1;P1;durP2;ratioP2;P2;SDS_P1;SDS_P2;PMS_P1;PMS_P2;Temp;Humidity;BMP_temperature;BMP_pressure;BME280_temperature;BME280_humidity;BME280_pressure;Samples;Min_cycle;Max_cycle;Signal;HPM_P1;HPM_P2
2024/04/14 00:02:04;;;;;;;11.00;10.30;;;;;;;14.07;77.97;145251.97;5483181;26;20260;-47
2024/04/14 00:04:29;;;;;;;10.80;10.10;;;;;;;14.07;78.87;145251.97;5483122;26;20307;-48
2024/04/14 00:06:57;;;;;;;11.30;10.60;;;;;;;14.03;78.50;145242.28;5482670;26;20222;-48
2024/04/14 00:09:23;;;;;;;10.63;10.03;;;;;;;13.98;78.50;145230.16;5483008;26;20273;-47
2024/04/14 00:11:51;;;;;;;10.77;9.97;;;;;;;14.01;78.71;145237.44;5482639;26;20583;-47
2024/04/14 00:14:19;;;;;;;10.67;9.90;;;;;;;13.97;78.86;145227.72;5482853;26;20786;-47
2024/04/14 00:16:47;;;;;;;10.60;10.00;;;;;;;13.92;78.57;145214.38;5482383;26;20222;-47
2024/04/14 00:19:14;;;;;;;10.67;9.97;;;;;;;13.88;78.61;145204.69;5482754;26;20241;-47
2024/04/14 00:21:42;;;;;;;10.80;10.00;;;;;;;13.90;77.73;145210.75;5482364;26;20214;-47
2024/04/14 00:24:08;;;;;;;10.40;9.80;;;;;;;13.83;77.63;145192.53;5482169;26;20269;-47
2024/04/14 00:26:36;;;;;;;10.60;9.93;;;;;;;13.82;77.17;145191.34;5482450;26;20218;-47
2024/04/14 00:29:01;;;;;;;10.63;9.87;;;;;;;13.80;76.68;145186.47;5485989;26;20314;-47
2024/04/14 00:31:32;;;;;;;10.73;10.00;;;;;;;13.78;76.33;145181.63;5486074;26;20215;-47
2024/04/14 00:33:58;;;;;;;10.17;9.47;;;;;;;13.78;76.76;145181.63;5486145;26;20726;-47
2024/04/14 00:36:26;;;;;;;10.83;10.03;;;;;;;13.79;76.17;145182.84;5485881;26;20298;-47
2024/04/14 00:38:51;;;;;;;10.70;10.10;;;;;;;13.79;76.33;145182.84;5485875;26;20207;-47
2024/04/14 00:41:19;;;;;;;10.87;10.07;;;;;;;13.81;75.58;145187.69;5486043;26;20253;-47
2024/04/14 00:43:44;;;;;;;11.33;10.53;;;;;;;13.80;75.53;145186.47;5486137;26;20215;-48
2024/04/14 00:46:13;;;;;;;10.73;10.03;;;;;;;13.83;75.66;145192.53;5485644;26;20261;-47
2024/04/14 00:48:41;;;;;;;10.50;9.80;;;;;;;13.82;74.93;145191.34;5485733;26;20567;-47
2024/04/14 00:51:10;;;;;;;10.37;9.77;;;;;;;13.79;74.06;145182.84;5485782;26;20218;-47
2024/04/14 00:53:36;;;;;;;10.20;9.60;;;;;;;13.77;74.58;145178.00;5485607;26;20241;-47
2024/04/14 00:56:05;;;;;;;10.50;9.80;;;;;;;13.75;74.72;145173.13;5485748;26;20215;-47
2024/04/14 00:58:31;;;;;;;10.17;9.57;;;;;;;13.73;74.93;145168.28;5485617;26;20656;-47
2024/04/14 01:00:59;;;;;;;10.40;9.80;;;;;;;13.70;75.46;145162.22;5485543;26;20219;-47
2024/04/14 01:03:24;;;;;;;10.50;9.80;;;;;;;13.66;75.47;145153.72;5485479;26;20211;-47
2024/04/14 01:05:55;;;;;;;10.30;9.70;;;;;;;13.64;75.61;145148.88;5485385;26;20253;-47
2024/04/14 01:08:21;;;;;;;10.13;9.53;;;;;;;13.64;75.69;145147.63;5485538;26;20207;-47
2024/04/14 01:10:49;;;;;;;10.40;9.70;;;;;;;13.58;75.31;145133.06;5485613;26;20819;-47
2024/04/14 01:13:15;;;;;;;10.30;9.70;;;;;;;13.55;76.54;145127.00;5485742;26;20253;-48
2024/04/14 01:15:43;;;;;;;11.03;10.30;;;;;;;13.53;75.59;145120.94;5485399;26;20222;-47
2024/04/14 01:18:08;;;;;;;10.73;9.97;;;;;;;13.48;75.63;145108.84;5485346;26;20261;-47
2024/04/14 01:20:36;;;;;;;11.03;10.23;;;;;;;13.46;76.20;145105.22;5485064;26;20753;-47
2024/04/14 01:23:05;;;;;;;10.70;10.03;;;;;;;13.40;75.95;145090.66;5485310;26;20249;-47
2024/04/14 01:25:35;;;;;;;10.80;10.00;;;;;;;13.39;76.33;145088.22;5485288;26;20219;-50
2024/04/14 01:28:01;;;;;;;10.33;9.73;;;;;;;13.34;76.35;145076.09;5485554;26;20207;-50
2024/04/14 01:30:30;;;;;;;10.20;9.60;;;;;;;13.32;76.60;145070.03;5485289;26;20219;-51
2024/04/14 01:32:55;;;;;;;11.00;10.30;;;;;;;13.30;76.84;145066.41;5485159;26;20215;-49
2024/04/14 01:35:23;;;;;;;10.97;10.27;;;;;;;13.28;77.56;145061.53;5485106;26;20211;-50
2024/04/14 01:37:48;;;;;;;10.60;9.80;;;;;;;13.18;77.75;145036.06;5484850;26;20215;-49
2024/04/14 01:40:17;;;;;;;11.13;10.33;;;;;;;13.13;78.14;145025.16;5485296;26;21012;-51
2024/04/14 01:42:45;;;;;;;10.57;9.97;;;;;;;13.12;77.84;145022.72;5492762;26;20266;-51
2024/04/14 01:45:15;;;;;;;10.63;9.73;;;;;;;13.13;77.80;145023.94;5490208;26;20211;-51
2024/04/14 01:47:40;;;;;;;10.93;10.30;;;;;;;13.13;77.45;145025.16;5488827;26;20245;-51
2024/04/14 01:50:09;;;;;;;10.60;9.90;;;;;;;13.11;77.06;145020.31;5485225;26;20706;-50
2024/04/14 01:52:34;;;;;;;11.13;10.33;;;;;;;13.11;77.37;145020.31;5485037;26;20218;-51
2024/04/14 01:55:02;;;;;;;10.63;9.83;;;;;;;13.08;77.46;145013.06;5485113;26;20252;-49
2024/04/14 01:57:28;;;;;;;10.20;9.50;;;;;;;13.05;77.18;145006.94;5484746;26;20215;-51
2024/04/14 01:59:59;;;;;;;10.80;9.80;;;;;;;13.02;77.30;144999.66;5484610;26;20222;-50
2024/04/14 02:02:24;;;;;;;9.70;9.10;;;;;;;13.00;77.65;144993.59;5484812;26;20377;-51
2024/04/14 02:04:52;;;;;;;10.60;10.00;;;;;;;12.96;77.86;144985.09;5484343;26;20600;-49
2024/04/14 02:07:18;;;;;;;11.03;10.33;;;;;;;12.94;77.95;144980.25;5484770;26;20250;-51
2024/04/14 02:09:46;;;;;;;10.70;10.10;;;;;;;12.94;78.55;144980.25;5485063;26;20235;-50
2024/04/14 02:12:12;;;;;;;10.57;9.80;;;;;;;12.89;77.80;144966.94;5484636;26;20309;-51
2024/04/14 02:14:40;;;;;;;12.50;11.60;;;;;;;12.85;78.43;144957.22;5484658;26;20226;-51
2024/04/14 02:17:08;;;;;;;11.20;10.40;;;;;;;12.84;77.95;144954.81;5484478;26;20702;-51
2024/04/14 02:19:36;;;;;;;10.60;9.90;;;;;;;12.82;78.66;144949.94;5484485;26;20257;-51
2024/04/14 02:22:01;;;;;;;10.43;9.83;;;;;;;12.83;78.56;144953.59;5484334;26;20565;-51
2024/04/14 02:24:32;;;;;;;10.70;10.10;;;;;;;12.79;78.53;144943.88;5484381;26;20235;-51
2024/04/14 02:26:58;;;;;;;11.30;10.53;;;;;;;12.71;78.61;144923.25;5484670;26;20215;-50
2024/04/14 02:29:26;;;;;;;10.43;9.83;;;;;;;12.69;78.94;144918.41;5484405;26;20619;-50
2024/04/14 02:31:51;;;;;;;10.60;10.00;;;;;;;12.62;78.69;144902.69;5484129;26;20699;-50
2024/04/14 02:34:22;;;;;;;10.87;10.20;;;;;;;12.56;79.54;144888.13;5484604;26;20245;-51
2024/04/14 02:36:47;;;;;;;10.57;9.90;;;;;;;12.51;79.86;144876.03;5484165;26;20219;-51
2024/04/14 02:39:15;;;;;;;10.73;10.03;;;;;;;12.51;79.76;144874.81;5484359;26;20241;-50
2024/04/14 02:41:41;;;;;;;10.23;9.63;;;;;;;12.47;80.50;144866.31;5484111;26;20225;-51
2024/04/14 02:44:09;;;;;;;10.67;10.07;;;;;;;12.44;80.62;144859.03;5484209;26;20211;-50
2024/04/14 02:46:35;;;;;;;10.77;10.17;;;;;;;12.48;80.47;144869.97;5484159;26;20219;-50
2024/04/14 02:49:03;;;;;;;10.43;9.83;;;;;;;12.54;79.53;144882.09;5484366;26;20253;-50
2024/04/14 02:51:31;;;;;;;10.13;9.53;;;;;;;12.61;79.65;144899.03;5483082;26;20215;-50
2024/04/14 02:53:59;;;;;;;10.70;10.00;;;;;;;12.60;79.82;144896.59;5483986;26;20215;-50
2024/04/14 02:56:25;;;;;;;10.73;10.03;;;;;;;12.61;78.57;144900.25;5484043;26;20211;-51
2024/04/14 02:58:53;;;;;;;10.30;9.70;;;;;;;12.61;78.51;144900.25;5483799;26;20262;-50
2024/04/14 03:01:18;;;;;;;10.37;9.73;;;;;;;12.62;79.27;144901.47;5483859;26;20206;-50
2024/04/14 03:03:48;;;;;;;10.87;10.07;;;;;;;12.66;78.53;144911.16;5484231;26;20256;-50
2024/04/14 03:06:14;;;;;;;10.60;10.00;;;;;;;12.65;78.13;144908.75;5483916;26;20230;-50
2024/04/14 03:08:45;;;;;;;10.93;10.10;;;;;;;12.64;78.85;144906.31;5483815;26;20226;-51
2024/04/14 03:11:10;;;;;;;10.20;9.60;;;;;;;12.63;78.32;144905.09;5483969;26;20215;-50
2024/04/14 03:13:38;;;;;;;10.43;9.73;;;;;;;12.62;78.49;144902.69;5483885;26;20327;-50
2024/04/14 03:16:04;;;;;;;11.10;10.23;;;;;;;12.60;78.04;144897.81;5483837;26;20214;-51
2024/04/14 03:18:33;;;;;;;10.70;10.00;;;;;;;12.56;77.55;144886.91;5483751;26;20227;-52
2024/04/14 03:21:00;;;;;;;10.53;9.93;;;;;;;12.58;78.18;144892.97;5483812;26;20683;-50
2024/04/14 03:23:29;;;;;;;10.60;10.00;;;;;;;12.60;79.01;144896.59;5483559;26;20227;-51
2024/04/14 03:25:57;;;;;;;10.90;10.10;;;;;;;12.60;78.40;144897.81;5484070;26;20219;-51
2024/04/14 03:28:27;;;;;;;10.20;9.60;;;;;;;12.56;78.28;144886.91;5483547;26;20222;-51
2024/04/14 03:30:58;;;;;;;10.00;9.40;;;;;;;12.54;78.49;144882.09;5483685;26;20247;-50
2024/04/14 03:33:26;;;;;;;10.63;9.83;;;;;;;12.57;78.34;144890.53;5483629;26;20698;-51
2024/04/14 03:35:59;;;;;;;10.63;9.97;;;;;;;12.56;77.77;144886.91;5483178;26;20214;-50
2024/04/14 03:38:27;;;;;;;10.00;9.40;;;;;;;12.51;78.20;144874.81;5483357;26;20710;-51
2024/04/14 03:40:55;;;;;;;9.73;9.13;;;;;;;12.49;77.91;144871.13;5483604;26;20215;-50
2024/04/14 03:43:26;;;;;;;10.23;9.63;;;;;;;12.51;78.14;144876.03;5483504;26;20687;-51
2024/04/14 03:45:54;;;;;;;10.40;9.60;;;;;;;12.51;79.28;144874.81;5483190;26;20214;-49
2024/04/14 03:48:22;;;;;;;10.20;9.60;;;;;;;12.46;79.20;144865.09;5483291;26;20210;-50
2024/04/14 03:50:50;;;;;;;10.13;9.53;;;;;;;12.48;78.03;144868.75;5482965;26;20717;-51
2024/04/14 03:53:15;;;;;;;9.73;9.13;;;;;;;12.45;78.24;144861.47;5483494;26;20237;-51
2024/04/14 03:55:44;;;;;;;9.53;8.83;;;;;;;12.46;77.86;144863.88;5483071;26;20222;-50
2024/04/14 03:58:09;;;;;;;10.10;9.53;;;;;;;12.47;77.24;144866.31;5482983;26;20211;-51
2024/04/14 04:00:40;;;;;;;9.97;9.40;;;;;;;12.44;78.03;144860.25;5483167;26;20249;-51
2024/04/14 04:03:05;;;;;;;9.77;9.17;;;;;;;12.44;78.60;144860.25;5481395;26;20218;-51
2024/04/14 04:05:33;;;;;;;9.30;8.70;;;;;;;12.44;78.34;144860.25;5482966;26;20253;-51
2024/04/14 04:07:58;;;;;;;9.47;8.97;;;;;;;12.43;78.62;144857.81;5483034;26;20560;-50
2024/04/14 04:10:26;;;;;;;9.57;8.83;;;;;;;12.40;78.56;144850.53;5482930;26;20634;-50
2024/04/14 04:12:52;;;;;;;9.87;9.07;;;;;;;12.39;77.79;144846.91;5482996;26;20785;-49
2024/04/14 04:15:20;;;;;;;9.87;9.37;;;;;;;12.38;78.03;144845.69;5482726;26;20262;-50
2024/04/14 04:17:48;;;;;;;9.90;9.27;;;;;;;12.37;78.53;144843.31;5482816;26;20215;-51
2024/04/14 04:20:16;;;;;;;9.93;9.30;;;;;;;12.38;77.49;144845.69;5482717;26;20219;-50
2024/04/14 04:22:41;;;;;;;10.13;9.57;;;;;;;12.36;77.70;144840.88;5482721;26;20554;-50
2024/04/14 04:25:09;;;;;;;10.13;9.53;;;;;;;12.37;77.77;144842.09;5482651;26;20298;-50
2024/04/14 04:27:35;;;;;;;9.47;8.97;;;;;;;12.37;77.83;144842.09;5482496;26;20219;-50
2024/04/14 04:30:03;;;;;;;9.70;9.10;;;;;;;12.35;77.23;144837.19;5482819;26;20633;-50
2024/04/14 04:32:28;;;;;;;10.33;9.53;;;;;;;12.36;77.51;144839.63;5482643;26;20237;-51
2024/04/14 04:34:59;;;;;;;9.87;9.37;;;;;;;12.36;77.49;144839.63;5482182;26;20215;-50
2024/04/14 04:37:24;;;;;;;10.00;9.50;;;;;;;12.36;76.94;144839.63;5482450;26;20211;-50
2024/04/14 04:39:52;;;;;;;9.83;9.23;;;;;;;12.35;78.21;144837.19;5482256;26;20796;-50
2024/04/14 04:42:18;;;;;;;9.77;9.27;;;;;;;12.36;78.49;144840.88;5482150;26;20212;-50
2024/04/14 04:44:46;;;;;;;10.07;9.50;;;;;;;12.39;78.40;144848.13;5482719;26;20263;-50
2024/04/14 04:47:12;;;;;;;10.30;9.60;;;;;;;12.39;77.78;144846.91;5482092;26;20302;-51
2024/04/14 04:49:40;;;;;;;10.07;9.40;;;;;;;12.40;78.24;144850.53;5482264;26;20373;-50
2024/04/14 04:52:08;;;;;;;9.40;8.80;;;;;;;12.39;77.98;144846.91;5482164;26;20581;-52
2024/04/14 04:54:36;;;;;;;9.80;9.13;;;;;;;12.46;78.10;144863.88;5482179;26;20219;-50
2024/04/14 04:57:01;;;;;;;9.00;8.40;;;;;;;12.52;77.88;144877.19;5482270;26;20254;-50
2024/04/14 04:59:29;;;;;;;9.57;8.97;;;;;;;12.53;78.11;144880.88;5482152;26;20274;-51
2024/04/14 05:01:55;;;;;;;9.27;8.73;;;;;;;12.61;78.05;144900.25;5481956;26;20215;-50
2024/04/14 05:04:23;;;;;;;10.10;9.33;;;;;;;12.66;76.96;144912.38;5481922;26;20976;-50
2024/04/14 05:06:51;;;;;;;9.67;8.97;;;;;;;12.75;77.13;144932.97;5482197;26;20215;-49
2024/04/14 05:09:19;;;;;;;9.60;8.90;;;;;;;12.85;76.76;144957.22;5482090;26;20226;-50
2024/04/14 05:11:47;;;;;;;9.17;8.57;;;;;;;12.83;77.30;144953.59;5482321;26;20222;-50
2024/04/14 05:14:12;;;;;;;9.40;8.80;;;;;;;12.96;76.43;144983.88;5484364;26;20241;-50
2024/04/14 05:16:40;;;;;;;9.10;8.50;;;;;;;13.06;77.35;145008.13;5485924;26;20774;-50
2024/04/14 05:19:06;;;;;;;9.00;8.50;;;;;;;13.20;76.82;145042.13;5485556;26;20257;-50
2024/04/14 05:21:34;;;;;;;9.03;8.53;;;;;;;13.33;75.91;145072.47;5485705;26;20266;-50
2024/04/14 05:23:59;;;;;;;9.27;8.57;;;;;;;13.39;76.51;145088.22;5485836;26;20556;-51
2024/04/14 05:26:30;;;;;;;9.00;8.40;;;;;;;13.50;76.55;145114.88;5485743;26;20257;-51
2024/04/14 05:28:55;;;;;;;9.50;8.90;;;;;;;13.59;76.18;145136.75;5485919;26;20254;-50
2024/04/14 05:31:24;;;;;;;8.80;8.20;;;;;;;13.71;76.36;145164.66;5485729;26;20264;-51
2024/04/14 05:33:50;;;;;;;9.47;8.77;;;;;;;13.90;76.30;145210.75;5485578;26;20215;-50
2024/04/14 05:36:18;;;;;;;8.70;8.20;;;;;;;14.09;75.15;145255.63;5485609;26;20227;-51
2024/04/14 05:38:47;;;;;;;8.87;8.33;;;;;;;14.37;73.91;145322.44;5486010;26;20219;-50
2024/04/14 05:41:15;;;;;;;9.10;8.60;;;;;;;14.64;72.75;145389.22;5485725;26;20245;-50
2024/04/14 05:43:43;;;;;;;8.80;8.20;;;;;;;14.92;71.63;145454.78;5485162;26;20211;-51
2024/04/14 05:46:11;;;;;;;9.17;8.67;;;;;;;15.19;71.16;145520.34;5485088;26;20233;-51
2024/04/14 05:48:37;;;;;;;9.30;8.70;;;;;;;15.44;70.23;145582.25;5485082;26;20745;-50
2024/04/14 05:51:05;;;;;;;9.10;8.40;;;;;;;15.75;69.72;145655.22;5484958;26;20218;-50
2024/04/14 05:53:30;;;;;;;9.10;8.60;;;;;;;16.04;68.99;145724.50;5485000;26;20219;-51
2024/04/14 05:55:58;;;;;;;9.10;8.60;;;;;;;16.32;69.22;145793.75;5484919;26;20633;-51
2024/04/14 05:58:24;;;;;;;9.27;8.67;;;;;;;16.55;67.38;145849.75;5484803;26;20254;-51
2024/04/14 06:00:54;;;;;;;9.00;8.40;;;;;;;16.82;65.67;145912.94;5484527;26;20222;-50
2024/04/14 06:03:20;;;;;;;8.47;7.97;;;;;;;16.98;66.07;145953.06;5484789;26;20211;-51
2024/04/14 06:05:50;;;;;;;8.77;8.23;;;;;;;17.11;66.30;145984.69;5484893;26;20253;-50
2024/04/14 06:08:16;;;;;;;8.80;8.20;;;;;;;17.29;64.92;146027.28;5485101;26;20241;-51
2024/04/14 06:10:44;;;;;;;8.90;8.40;;;;;;;17.54;65.12;146088.13;5484541;26;20231;-50
2024/04/14 06:13:10;;;;;;;8.23;7.80;;;;;;;17.93;64.89;146180.59;5484362;26;20616;-50
2024/04/14 06:15:38;;;;;;;8.50;7.90;;;;;;;18.14;63.21;146232.94;5484495;26;20257;-50
2024/04/14 06:18:06;;;;;;;8.53;7.93;;;;;;;18.45;62.95;146305.97;5484463;26;20552;-51
2024/04/14 06:20:36;;;;;;;8.73;8.13;;;;;;;18.84;62.08;146401.00;5484503;26;20253;-51
2024/04/14 06:23:02;;;;;;;8.33;7.87;;;;;;;19.39;60.50;146533.81;5484409;26;20258;-50
2024/04/14 06:25:30;;;;;;;9.20;8.50;;;;;;;19.94;57.67;146666.66;5482959;26;20572;-51
2024/04/14 06:27:55;;;;;;;8.55;8.15;;;;;;;20.50;56.23;146801.97;5484257;26;20214;-51
2024/04/14 06:30:23;;;;;;;9.30;8.80;;;;;;;20.75;55.34;146861.72;5484411;26;20248;-51
2024/04/14 06:32:49;;;;;;;8.95;8.45;;;;;;;20.76;54.80;146865.41;5484247;26;20326;-50
2024/04/14 06:35:20;;;;;;;9.23;8.73;;;;;;;20.95;54.36;146910.53;5484327;26;20230;-51
2024/04/14 06:37:45;;;;;;;9.65;9.15;;;;;;;21.58;54.04;147064.28;5484462;26;20242;-51
2024/04/14 06:40:14;;;;;;;8.95;8.45;;;;;;;22.89;49.68;147381.78;5483875;26;20226;-51
2024/04/14 06:42:39;;;;;;;9.30;8.80;;;;;;;24.31;47.18;147723.97;5484082;26;20249;-51
2024/04/14 06:45:08;;;;;;;9.57;9.07;;;;;;;25.50;44.09;148012.66;5484280;26;20710;-51
2024/04/14 06:47:34;;;;;;;9.15;8.65;;;;;;;26.73;41.25;148312.56;5484166;26;20581;-51
2024/04/14 06:50:02;;;;;;;9.82;9.25;;;;;;;27.67;39.26;148539.25;5484086;26;20245;-52
2024/04/14 06:52:30;;;;;;;10.30;9.70;;;;;;;28.11;37.32;148648.34;5484083;26;20215;-52
2024/04/14 06:54:58;;;;;;;10.23;9.70;;;;;;;28.59;36.59;148764.78;5483884;26;20218;-52
2024/04/14 06:57:23;;;;;;;10.15;9.65;;;;;;;28.78;35.56;148811.41;5484143;26;20241;-54
2024/04/14 06:59:51;;;;;;;10.00;9.35;;;;;;;28.31;35.01;148694.94;5483906;26;20565;-52
2024/04/14 07:02:17;;;;;;;10.35;9.75;;;;;;;27.79;36.21;148569.84;5483934;26;20215;-53
2024/04/14 07:04:45;;;;;;;10.05;9.55;;;;;;;27.39;36.76;148473.03;5483871;26;20237;-52
2024/04/14 07:07:10;;;;;;;9.60;9.10;;;;;;;27.05;37.37;148389.75;5483661;26;20215;-56
2024/04/14 07:09:41;;;;;;;9.70;9.20;;;;;;;26.57;37.73;148272.16;5483877;26;20331;-51
2024/04/14 07:12:07;;;;;;;9.82;9.20;;;;;;;26.27;38.40;148201.16;5483763;26;20236;-52
2024/04/14 07:14:36;;;;;;;10.13;9.40;;;;;;;25.96;39.81;148125.22;5483751;26;20320;-52
2024/04/14 07:17:02;;;;;;;9.95;9.27;;;;;;;25.97;39.56;148126.44;5483756;26;20566;-51
2024/04/14 07:19:30;;;;;;;9.70;9.20;;;;;;;26.06;39.39;148149.72;5483595;26;20218;-52
2024/04/14 07:21:55;;;;;;;9.68;9.18;;;;;;;26.28;40.19;148202.41;5483392;26;20730;-51
2024/04/14 07:24:24;;;;;;;9.85;9.35;;;;;;;26.09;39.76;148155.84;5483482;26;20234;-53
2024/04/14 07:26:52;;;;;;;9.63;9.13;;;;;;;25.69;40.77;148059.16;5483348;26;20218;-51
2024/04/14 07:29:20;;;;;;;10.18;9.48;;;;;;;25.17;41.79;147934.34;5483748;26;20218;-53
2024/04/14 07:31:45;;;;;;;10.20;9.60;;;;;;;24.97;41.45;147885.44;5483706;26;20222;-50
2024/04/14 07:34:13;;;;;;;10.20;9.40;;;;;;;24.90;41.62;147867.06;5482664;26;20300;-48
2024/04/14 07:36:39;;;;;;;9.68;9.13;;;;;;;25.13;41.33;147924.56;5482706;26;20218;-51
2024/04/14 07:39:07;;;;;;;10.02;9.38;;;;;;;25.42;40.46;147994.28;5483072;26;20250;-49
2024/04/14 07:41:32;;;;;;;10.00;9.32;;;;;;;25.28;39.95;147960.00;5482897;26;20246;-50
2024/04/14 07:44:03;;;;;;;9.90;9.40;;;;;;;25.55;40.48;148026.13;5483423;26;20669;-50
2024/04/14 07:46:31;;;;;;;9.48;8.98;;;;;;;25.58;40.72;148032.22;5483347;26;20253;-50
2024/04/14 07:48:59;;;;;;;9.88;9.18;;;;;;;25.54;41.12;148023.69;5482986;26;20218;-49
2024/04/14 07:51:24;;;;;;;9.70;9.10;;;;;;;25.58;41.27;148032.22;5483113;26;20214;-49
2024/04/14 07:53:52;;;;;;;9.68;9.00;;;;;;;25.55;39.78;148026.13;5482731;26;20223;-51
2024/04/14 07:56:18;;;;;;;9.40;8.80;;;;;;;25.67;40.03;148055.50;5483091;26;20227;-50
2024/04/14 07:58:46;;;;;;;9.80;9.10;;;;;;;25.79;40.01;148084.84;5483133;26;20257;-49
2024/04/14 08:01:14;;;;;;;10.30;9.35;;;;;;;27.06;38.06;148392.19;5482850;26;20222;-50
2024/04/14 08:03:42;;;;;;;10.68;9.98;;;;;;;28.15;35.43;148658.13;5483106;26;20318;-50
2024/04/14 08:06:08;;;;;;;10.85;10.15;;;;;;;29.32;35.14;148942.63;5482708;26;20592;-49
2024/04/14 08:08:36;;;;;;;10.73;10.13;;;;;;;30.66;33.65;149266.63;5482940;26;20270;-50
2024/04/14 08:11:01;;;;;;;10.55;9.95;;;;;;;31.28;31.41;149417.69;5482959;26;20274;-49
2024/04/14 08:13:29;;;;;;;11.10;10.50;;;;;;;31.56;31.22;149487.69;5482804;26;20314;-49
2024/04/14 08:15:55;;;;;;;10.77;10.10;;;;;;;31.57;31.41;149490.19;5482615;26;20554;-48
2024/04/14 08:18:25;;;;;;;11.07;10.45;;;;;;;31.82;31.11;149550.34;5482759;26;20219;-49
2024/04/14 08:20:59;;;;;;;11.65;10.93;;;;;;;32.34;30.22;149676.94;5482352;26;20698;-48
2024/04/14 08:23:28;;;;;;;11.32;10.63;;;;;;;33.01;30.03;149840.38;5482428;26;20264;-49
2024/04/14 08:25:53;;;;;;;11.75;11.05;;;;;;;34.06;29.04;150096.22;5482552;26;20219;-49
2024/04/14 08:28:22;;;;;;;11.38;10.68;;;;;;;34.58;28.07;150221.75;5482538;26;20282;-49
2024/04/14 08:30:47;;;;;;;11.45;10.68;;;;;;;34.91;27.46;150304.22;5482523;26;20262;-49
2024/04/14 08:33:15;;;;;;;10.90;10.30;;;;;;;35.15;27.88;150360.84;5482895;26;20280;-51
2024/04/14 08:35:43;;;;;;;10.98;10.38;;;;;;;34.47;27.46;150197.13;5482340;26;20246;-50
2024/04/14 08:38:11;;;;;;;11.20;10.48;;;;;;;35.21;26.20;150375.59;5481987;26;20266;-51
2024/04/14 08:40:37;;;;;;;11.48;10.68;;;;;;;36.71;26.35;150743.84;5482166;26;20941;-51
2024/04/14 08:43:06;;;;;;;11.50;10.80;;;;;;;37.15;25.61;150851.06;5482025;26;20218;-50
2024/04/14 08:45:32;;;;;;;11.38;10.57;;;;;;;36.97;24.79;150806.69;5482072;26;20573;-50
2024/04/14 08:48:02;;;;;;;11.40;10.70;;;;;;;37.16;25.49;150852.31;5482367;26;20241;-49
2024/04/14 08:50:28;;;;;;;11.38;10.70;;;;;;;37.95;24.37;151045.84;5485512;26;20550;-49
2024/04/14 08:52:59;;;;;;;11.65;10.95;;;;;;;38.82;23.13;151257.94;5485537;26;20219;-49
2024/04/14 08:55:24;;;;;;;11.57;10.88;;;;;;;39.28;23.10;151370.19;5485825;26;20305;-50
2024/04/14 08:57:53;;;;;;;12.05;11.25;;;;;;;39.36;23.11;151391.16;5485259;26;20231;-50
2024/04/14 09:00:19;;;;;;;10.25;9.55;;;;;;;39.36;23.42;151389.91;5485555;26;20347;-50
2024/04/14 09:02:47;;;;;;;11.20;10.50;;;;;;;39.23;22.86;151359.09;5485806;26;20219;-50
2024/04/14 09:05:13;;;;;;;11.52;10.82;;;;;;;39.26;23.22;151366.50;5485605;26;20253;-50
2024/04/14 09:07:41;;;;;;;11.68;10.88;;;;;;;39.57;22.43;151441.69;5485688;26;20722;-51
2024/04/14 09:10:09;;;;;;;10.88;10.27;;;;;;;39.32;23.31;151381.25;5485462;26;20227;-51
2024/04/14 09:12:37;;;;;;;11.32;10.73;;;;;;;39.65;22.81;151461.47;5485522;26;20832;-50
2024/04/14 09:15:03;;;;;;;11.90;11.20;;;;;;;39.66;22.50;151465.19;5485400;26;20211;-50
2024/04/14 09:17:31;;;;;;;12.05;11.18;;;;;;;37.74;24.80;150995.22;5485407;26;20270;-50
2024/04/14 09:19:57;;;;;;;11.45;10.85;;;;;;;38.06;24.42;151072.94;5485410;26;20211;-51
2024/04/14 09:22:25;;;;;;;12.02;11.23;;;;;;;37.84;24.27;151018.66;5485266;26;20535;-51
2024/04/14 09:24:50;;;;;;;11.93;11.10;;;;;;;38.20;24.17;151107.41;5485080;26;20754;-50
2024/04/14 09:27:23;;;;;;;12.18;11.48;;;;;;;39.00;23.86;151303.53;5485523;26;20294;-49
2024/04/14 09:29:48;;;;;;;11.80;11.10;;;;;;;39.80;23.27;151497.25;5485011;26;20211;-51
2024/04/14 09:32:17;;;;;;;11.88;11.27;;;;;;;40.51;22.60;151672.56;5482823;26;20226;-49
2024/04/14 09:34:43;;;;;;;12.15;11.45;;;;;;;40.34;21.98;151630.53;5485618;26;20215;-53
2024/04/14 09:37:12;;;;;;;12.70;11.90;;;;;;;37.54;23.44;150945.97;5485061;26;20257;-50
2024/04/14 09:39:38;;;;;;;11.93;11.13;;;;;;;37.79;24.18;151007.56;5484771;26;20714;-51
2024/04/14 09:42:07;;;;;;;11.70;11.10;;;;;;;38.61;23.16;151207.31;5485036;26;20376;-49
2024/04/14 09:44:36;;;;;;;12.00;11.30;;;;;;;39.01;22.71;151306.03;5485365;26;20241;-50
2024/04/14 09:47:06;;;;;;;12.25;11.55;;;;;;;39.19;22.57;151347.91;5484798;26;20254;-49
2024/04/14 09:49:32;;;;;;;12.05;11.35;;;;;;;39.57;22.84;151442.94;5485278;26;20241;-50
2024/04/14 09:52:01;;;;;;;12.18;11.43;;;;;;;39.21;22.94;151354.13;5485100;26;20261;-47
2024/04/14 09:54:28;;;;;;;12.18;11.48;;;;;;;39.24;23.16;151361.53;5484520;26;20662;-50
2024/04/14 09:56:56;;;;;;;12.07;11.25;;;;;;;39.31;23.22;151377.59;5484765;26;20222;-50
2024/04/14 09:59:22;;;;;;;12.50;11.80;;;;;;;39.38;23.40;151394.81;5484749;26;20211;-51
2024/04/14 10:01:53;;;;;;;12.45;11.73;;;;;;;39.32;22.85;151380.06;5484743;26;20271;-51
2024/04/14 10:04:20;;;;;;;12.20;11.50;;;;;;;39.90;22.96;151523.16;5484732;26;20219;-50
2024/04/14 10:06:49;;;;;;;12.23;11.30;;;;;;;39.86;23.25;151512.06;5484697;26;20231;-50
2024/04/14 10:09:14;;;;;;;12.20;11.50;;;;;;;39.43;23.07;151408.41;5484647;26;20269;-50
2024/04/14 10:11:45;;;;;;;12.35;11.65;;;;;;;35.86;25.97;150535.66;5484432;26;20373;-49
2024/04/14 10:14:12;;;;;;;12.75;11.80;;;;;;;34.79;27.61;150274.66;5484467;26;20550;-50
2024/04/14 10:16:40;;;;;;;12.45;11.65;;;;;;;35.55;26.68;150459.31;5484599;26;20210;-51
2024/04/14 10:19:08;;;;;;;12.30;11.60;;;;;;;36.50;26.15;150692.13;5478211;26;20231;-52
2024/04/14 10:21:36;;;;;;;12.18;11.43;;;;;;;36.16;27.49;150609.56;5453725;26;20228;-49
2024/04/14 10:24:04;;;;;;;12.30;11.50;;;;;;;36.33;26.24;150648.97;5447888;26;20236;-50
2024/04/14 10:26:33;;;;;;;12.57;11.73;;;;;;;37.06;25.97;150828.88;5448192;26;20667;-49
2024/04/14 10:28:59;;;;;;;12.55;11.85;;;;;;;37.55;25.53;150947.16;5448505;26;20258;-49
2024/04/14 10:31:29;;;;;;;12.55;11.60;;;;;;;38.44;24.18;151166.66;5447972;26;20219;-49
2024/04/14 10:34:05;;;;;;;12.60;11.70;;;;;;;34.82;28.35;150282.03;5448352;26;20267;-49
2024/04/14 10:36:36;;;;;;;12.00;11.30;;;;;;;35.49;27.19;150445.72;5448374;26;20605;-48
2024/04/14 10:39:03;;;;;;;12.30;11.50;;;;;;;36.09;26.91;150592.34;5452638;26;20270;-48
2024/04/14 10:41:31;;;;;;;13.00;12.20;;;;;;;35.43;27.74;150429.75;5483757;26;20245;-48
2024/04/14 10:43:57;;;;;;;12.88;12.07;;;;;;;33.57;30.59;149975.72;5484448;26;20571;-48
2024/04/14 10:46:25;;;;;;;12.80;11.85;;;;;;;33.63;30.20;149990.47;5484046;26;20228;-49
2024/04/14 10:48:51;;;;;;;12.25;11.45;;;;;;;33.56;30.70;149974.44;5484090;26;20702;-48
2024/04/14 10:51:19;;;;;;;12.90;12.10;;;;;;;31.51;33.19;149474.19;5481339;26;20612;-48
2024/04/14 10:53:48;;;;;;;12.90;12.10;;;;;;;32.81;32.39;149792.50;5484629;26;20219;-49
2024/04/14 10:56:16;;;;;;;12.98;12.18;;;;;;;32.72;31.62;149769.13;5484511;26;20262;-48
2024/04/14 10:58:41;;;;;;;13.10;12.20;;;;;;;32.96;32.68;149826.88;5483655;26;20234;-48
2024/04/14 11:01:10;;;;;;;13.20;12.30;;;;;;;31.31;33.57;149426.28;5483563;26;20218;-48
2024/04/14 11:03:38;;;;;;;12.93;12.23;;;;;;;30.48;35.00;149223.69;5483671;26;20219;-49
2024/04/14 11:06:04;;;;;;;13.27;12.20;;;;;;;30.01;36.40;149109.50;5483160;26;20242;-48
2024/04/14 11:08:33;;;;;;;12.40;11.70;;;;;;;29.15;37.77;148899.69;5483733;26;20231;-50
2024/04/14 11:11:02;;;;;;;12.80;12.00;;;;;;;28.84;38.22;148823.66;5483012;26;20215;-49
2024/04/14 11:13:30;;;;;;;12.43;11.70;;;;;;;28.46;40.02;148732.91;5483428;26;20273;-48
2024/04/14 11:15:56;;;;;;;12.93;11.98;;;;;;;27.71;40.47;148550.25;5483285;26;20214;-48
2024/04/14 11:18:28;;;;;;;12.57;11.77;;;;;;;27.98;40.80;148616.41;5483617;26;20706;-48